createdAt,value
2023-04-14T00:05:40.426Z,9.45
2023-04-14T00:12:22.924Z,9.40
2023-04-14T00:19:05.116Z,9.38
2023-04-14T00:25:49.789Z,9.42
2023-04-14T00:32:32.070Z,9.45
2023-04-14T00:39:15.701Z,9.44
2023-04-14T00:45:58.878Z,9.36
2023-04-14T00:52:44.552Z,9.33
2023-04-14T00:59:28.866Z,9.33
2023-04-14T01:06:11.106Z,9.35
2023-04-14T01:13:20.118Z,9.36
2023-04-14T01:20:31.041Z,9.35
2023-04-14T01:27:28.191Z,9.32
2023-04-14T01:34:30.053Z,9.31
2023-04-14T01:41:16.857Z,9.27
2023-04-14T01:48:00.469Z,9.23
2023-04-14T01:54:43.486Z,9.22
2023-04-14T02:01:29.160Z,9.16
2023-04-14T02:08:14.123Z,9.12
2023-04-14T02:14:58.475Z,9.12
2023-04-14T02:21:42.457Z,9.12
2023-04-14T02:28:31.752Z,9.12
2023-04-14T02:35:27.906Z,9.13
2023-04-14T02:42:15.864Z,9.12
2023-04-14T02:49:01.824Z,9.11
2023-04-14T02:55:47.898Z,9.12
2023-04-14T03:02:33.363Z,9.09
2023-04-14T03:09:22.737Z,9.10
2023-04-14T03:16:06.222Z,9.06
2023-04-14T03:23:06.315Z,9.01
2023-04-14T03:29:58.744Z,8.98
2023-04-14T03:36:44.372Z,8.93
2023-04-14T03:43:29.439Z,8.89
2023-04-14T03:50:21.237Z,8.84
2023-04-14T03:57:08.861Z,8.79
2023-04-14T04:03:56.248Z,8.74
2023-04-14T04:10:41.509Z,8.72
2023-04-14T04:17:26.625Z,8.70
2023-04-14T04:24:11.290Z,8.70
2023-04-14T04:30:56.501Z,8.74
2023-04-14T04:37:39.959Z,8.75
2023-04-14T04:44:22.308Z,8.79
2023-04-14T04:51:04.862Z,8.85
2023-04-14T04:57:47.272Z,8.96
2023-04-14T05:04:29.568Z,9.03
2023-04-14T05:11:12.111Z,9.09
2023-04-14T05:17:54.294Z,9.16
2023-04-14T05:24:36.598Z,9.22
2023-04-14T05:31:20.267Z,9.29
2023-04-14T05:38:02.447Z,9.37
2023-04-14T05:44:44.691Z,9.46
2023-04-14T05:51:27.930Z,9.52
2023-04-14T05:58:10.110Z,9.63
2023-04-14T06:04:52.576Z,9.74
2023-04-14T06:11:35.204Z,9.87
2023-04-14T06:18:17.422Z,9.95
2023-04-14T06:24:59.633Z,9.92
2023-04-14T06:31:41.881Z,9.74
2023-04-14T06:38:25.326Z,9.62
2023-04-14T06:45:08.381Z,9.52
2023-04-14T06:51:50.849Z,9.48
2023-04-14T06:58:33.467Z,9.49
2023-04-14T07:05:17.330Z,9.57
2023-04-14T07:11:59.822Z,9.61
2023-04-14T07:18:41.992Z,9.65
2023-04-14T07:25:24.201Z,9.66
2023-04-14T07:32:06.771Z,9.70
2023-04-14T07:38:51.841Z,9.82
2023-04-14T07:45:34.179Z,9.97
2023-04-14T07:52:16.720Z,10.07
2023-04-14T07:58:59.270Z,10.16
2023-04-14T08:05:42.292Z,10.29
2023-04-14T08:12:25.170Z,10.41
2023-04-14T08:19:07.769Z,10.53
2023-04-14T08:25:49.947Z,10.68
2023-04-14T08:32:32.127Z,10.79
2023-04-14T08:39:14.897Z,10.91
2023-04-14T08:46:00.400Z,11.05
2023-04-14T08:52:45.090Z,11.24
2023-04-14T08:59:28.813Z,11.51
2023-04-14T09:06:12.304Z,11.70
2023-04-14T09:12:55.854Z,12.00
2023-04-14T09:20:35.182Z,12.25
2023-04-14T09:26:41.259Z,12.44
2023-04-14T09:33:23.957Z,12.54
2023-04-14T09:40:08.319Z,12.65
2023-04-14T09:47:05.703Z,12.83
2023-04-14T09:53:48.684Z,13.03
2023-04-14T10:00:32.308Z,13.27
2023-04-14T10:07:18.893Z,13.34
2023-04-14T10:14:06.740Z,13.34
2023-04-14T10:20:49.609Z,13.43
2023-04-14T10:27:33.618Z,13.58
2023-04-14T10:34:16.289Z,13.72
2023-04-14T10:41:00.087Z,13.87
2023-04-14T10:47:42.386Z,14.10
2023-04-14T10:54:24.525Z,14.34
2023-04-14T11:01:31.826Z,14.48
2023-04-14T11:08:19.269Z,14.59
2023-04-14T11:15:05.534Z,14.75
2023-04-14T11:21:53.661Z,14.81
2023-04-14T11:28:42.424Z,14.69
2023-04-14T11:35:29.332Z,14.58
2023-04-14T11:42:13.308Z,14.49
2023-04-14T11:48:56.767Z,14.36
2023-04-14T11:55:52.444Z,14.24
2023-04-14T12:02:36.018Z,14.32
2023-04-14T12:09:18.234Z,14.29
2023-04-14T12:16:00.732Z,14.46
2023-04-14T12:22:43.007Z,14.54
2023-04-14T12:29:25.725Z,14.62
2023-04-14T12:36:12.458Z,14.78
2023-04-14T12:42:56.536Z,15.15
2023-04-14T12:49:39.254Z,15.59
2023-04-14T12:56:22.589Z,15.89
2023-04-14T13:03:04.995Z,16.04
2023-04-14T13:09:47.146Z,16.12
2023-04-14T13:16:29.559Z,16.05
2023-04-14T13:23:11.935Z,16.27
2023-04-14T13:29:54.224Z,16.68
2023-04-14T13:36:36.916Z,17.21
2023-04-14T13:43:19.218Z,17.45
2023-04-14T13:50:01.673Z,17.35
2023-04-14T13:56:43.825Z,17.20
2023-04-14T14:03:27.380Z,17.00
2023-04-14T14:10:11.886Z,16.98
2023-04-14T14:16:55.150Z,16.84
2023-04-14T14:23:37.489Z,16.66
2023-04-14T14:30:19.760Z,16.66
2023-04-14T14:37:02.085Z,16.82
2023-04-14T14:43:44.309Z,16.78
2023-04-14T14:50:26.669Z,16.82
2023-04-14T14:57:08.926Z,17.02
2023-04-14T15:03:51.132Z,17.01
2023-04-14T15:10:33.404Z,16.88
2023-04-14T15:17:16.763Z,16.78
2023-04-14T15:23:59.750Z,16.76
2023-04-14T15:30:42.159Z,16.62
2023-04-14T15:37:25.557Z,16.50
2023-04-14T15:44:07.712Z,16.45
2023-04-14T15:50:49.913Z,16.53
2023-04-14T15:57:32.228Z,16.57
2023-04-14T16:04:14.494Z,16.64
2023-04-14T16:10:57.009Z,16.49
2023-04-14T16:17:39.465Z,16.16
2023-04-14T16:24:21.685Z,15.86
2023-04-14T16:31:04.026Z,15.61
2023-04-14T16:37:46.183Z,15.34
2023-04-14T16:44:28.291Z,15.14
2023-04-14T16:51:11.301Z,15.00
2023-04-14T16:57:53.452Z,14.92
2023-04-14T17:04:36.011Z,14.80
2023-04-14T17:11:18.309Z,14.65
2023-04-14T17:18:00.939Z,14.49
2023-04-14T17:24:44.259Z,14.36
2023-04-14T17:31:27.473Z,14.21
2023-04-14T17:38:10.655Z,14.05
2023-04-14T17:44:52.988Z,13.90
2023-04-14T17:51:35.333Z,13.74
2023-04-14T17:58:17.516Z,13.59
2023-04-14T18:04:59.723Z,13.43
2023-04-14T18:11:42.037Z,13.29
2023-04-14T18:18:39.935Z,13.16
2023-04-14T18:25:22.249Z,13.05
2023-04-14T18:32:04.558Z,12.95
2023-04-14T18:38:46.729Z,12.89
2023-04-14T18:45:28.899Z,12.81
2023-04-14T18:52:11.471Z,12.73
2023-04-14T18:58:55.845Z,12.66
2023-04-14T19:05:38.244Z,12.60
2023-04-14T19:12:28.224Z,12.54
2023-04-14T19:19:11.043Z,12.45
2023-04-14T19:25:54.169Z,12.37
2023-04-14T19:32:36.878Z,12.29
2023-04-14T19:39:20.797Z,12.19
2023-04-14T19:46:05.155Z,12.08
2023-04-14T19:52:49.810Z,11.97
2023-04-14T19:59:33.502Z,11.88
2023-04-14T20:06:16.355Z,11.73
2023-04-14T20:12:58.696Z,11.60
2023-04-14T20:19:41.143Z,11.47
2023-04-14T20:26:23.410Z,11.33
2023-04-14T20:33:05.948Z,11.19
2023-04-14T20:39:49.696Z,11.05
2023-04-14T20:46:32.029Z,10.91
2023-04-14T20:53:14.171Z,10.78
2023-04-14T20:59:56.265Z,10.66
2023-04-14T21:06:38.628Z,10.55
2023-04-14T21:15:42.361Z,10.40
2023-04-14T21:20:24.230Z,10.29
2023-04-14T21:27:06.617Z,10.17
2023-04-14T21:33:48.816Z,10.05
2023-04-14T21:40:31.074Z,9.97
2023-04-14T21:47:13.307Z,9.90
2023-04-14T21:53:55.857Z,9.85
2023-04-14T22:00:38.076Z,9.75
2023-04-14T22:07:20.215Z,9.69
2023-04-14T22:14:03.308Z,9.64
2023-04-14T22:20:45.657Z,9.60
2023-04-14T22:27:27.870Z,9.59
2023-04-14T22:34:10.084Z,9.60
2023-04-14T22:40:52.759Z,9.63
2023-04-14T22:47:35.308Z,9.64
2023-04-14T22:54:17.519Z,9.63
2023-04-14T23:01:02.759Z,9.61
2023-04-14T23:07:49.525Z,9.57
2023-04-14T23:14:32.400Z,9.56
2023-04-14T23:21:15.568Z,9.56
2023-04-14T23:27:58.329Z,9.57
2023-04-14T23:34:40.679Z,9.59
2023-04-14T23:41:24.313Z,9.61
2023-04-14T23:48:07.467Z,9.65
2023-04-14T23:54:49.658Z,9.66
